createdAt,value
2022-09-30T00:00:52.661Z,0.00
2022-09-30T00:01:52.672Z,0.00
2022-09-30T00:02:52.596Z,0.00
2022-09-30T00:03:52.510Z,0.00
2022-09-30T00:04:52.461Z,0.00
2022-09-30T00:05:52.410Z,0.00
2022-09-30T00:06:52.387Z,0.00
2022-09-30T00:07:52.313Z,0.00
2022-09-30T00:08:52.262Z,0.00
2022-09-30T00:09:52.212Z,0.00
2022-09-30T00:10:52.164Z,0.00
2022-09-30T00:11:52.114Z,0.00
2022-09-30T00:12:52.065Z,0.00
2022-09-30T00:13:52.013Z,0.00
2022-09-30T00:14:51.965Z,0.00
2022-09-30T00:15:51.973Z,0.00
2022-09-30T00:16:51.866Z,0.00
2022-09-30T00:17:51.819Z,0.00
2022-09-30T00:18:51.766Z,0.00
2022-09-30T00:19:51.718Z,0.00
2022-09-30T00:20:51.667Z,0.00
2022-09-30T00:21:51.614Z,0.00
2022-09-30T00:22:51.583Z,0.00
2022-09-30T00:23:51.516Z,0.00
2022-09-30T00:24:51.468Z,0.00
2022-09-30T00:25:51.418Z,0.00
2022-09-30T00:26:51.367Z,0.00
2022-09-30T00:27:51.319Z,0.00
2022-09-30T00:28:51.271Z,0.00
2022-09-30T00:29:51.220Z,0.00
2022-09-30T00:30:51.170Z,0.00
2022-09-30T00:31:51.170Z,0.00
2022-09-30T00:32:51.068Z,0.00
2022-09-30T00:33:51.018Z,0.00
2022-09-30T00:34:50.969Z,0.00
2022-09-30T00:35:50.921Z,0.00
2022-09-30T00:36:50.868Z,0.00
2022-09-30T00:37:50.819Z,0.00
2022-09-30T00:38:50.786Z,0.00
2022-09-30T00:39:50.718Z,0.00
2022-09-30T00:40:50.670Z,0.00
2022-09-30T00:41:50.627Z,0.00
2022-09-30T00:42:50.597Z,0.00
2022-09-30T00:43:50.517Z,0.00
2022-09-30T00:44:50.472Z,0.00
2022-09-30T00:45:50.420Z,0.00
2022-09-30T00:46:50.441Z,0.00
2022-09-30T00:47:50.323Z,0.00
2022-09-30T00:48:50.272Z,0.00
2022-09-30T00:49:50.220Z,0.00
2022-09-30T00:50:50.171Z,0.00
2022-09-30T00:51:50.125Z,0.00
2022-09-30T00:52:50.075Z,0.00
2022-09-30T00:53:50.023Z,0.00
2022-09-30T00:54:49.989Z,0.00
2022-09-30T00:55:49.919Z,0.00
2022-09-30T00:56:49.882Z,0.00
2022-09-30T00:57:49.821Z,0.00
2022-09-30T00:58:49.772Z,0.00
2022-09-30T00:59:49.726Z,0.00
2022-09-30T01:00:49.781Z,0.00
2022-09-30T01:01:49.752Z,0.00
2022-09-30T01:02:49.576Z,0.00
2022-09-30T01:03:49.521Z,0.00
2022-09-30T01:04:49.471Z,0.00
2022-09-30T01:05:49.422Z,0.00
2022-09-30T01:06:49.371Z,0.00
2022-09-30T01:07:49.322Z,0.00
2022-09-30T01:08:49.273Z,0.00
2022-09-30T01:09:49.304Z,0.00
2022-09-30T01:10:49.203Z,0.00
2022-09-30T01:11:49.121Z,0.00
2022-09-30T01:12:49.075Z,0.00
2022-09-30T01:13:49.022Z,0.00
2022-09-30T01:14:48.976Z,0.00
2022-09-30T01:15:48.936Z,0.00
2022-09-30T01:16:48.873Z,0.00
2022-09-30T01:17:48.822Z,0.00
2022-09-30T01:18:48.771Z,0.00
2022-09-30T01:19:48.719Z,0.00
2022-09-30T01:20:48.673Z,0.00
2022-09-30T01:21:48.622Z,0.00
2022-09-30T01:22:48.572Z,0.00
2022-09-30T01:23:48.522Z,0.00
2022-09-30T01:24:48.473Z,0.00
2022-09-30T01:25:48.423Z,0.00
2022-09-30T01:26:48.398Z,0.00
2022-09-30T01:27:48.323Z,0.00
2022-09-30T01:28:48.272Z,0.00
2022-09-30T01:29:48.426Z,0.00
2022-09-30T01:30:48.172Z,0.00
2022-09-30T01:31:48.173Z,0.00
2022-09-30T01:32:48.076Z,0.00
2022-09-30T01:33:48.023Z,0.00
2022-09-30T01:34:47.972Z,0.00
2022-09-30T01:35:47.922Z,0.00
2022-09-30T01:36:47.873Z,0.00
2022-09-30T01:37:47.825Z,0.00
2022-09-30T01:38:47.771Z,0.00
2022-09-30T01:39:47.721Z,0.00
2022-09-30T01:40:47.673Z,0.00
2022-09-30T01:41:47.621Z,0.00
2022-09-30T01:42:47.593Z,0.00
2022-09-30T01:43:47.522Z,0.00
2022-09-30T01:44:47.474Z,0.00
2022-09-30T01:45:47.422Z,0.00
2022-09-30T01:46:47.438Z,0.00
2022-09-30T01:47:47.320Z,0.00
2022-09-30T01:48:47.278Z,0.00
2022-09-30T01:49:47.220Z,0.00
2022-09-30T01:50:47.173Z,0.00
2022-09-30T01:51:47.121Z,0.00
2022-09-30T01:52:47.074Z,0.00
2022-09-30T01:53:47.028Z,0.00
2022-09-30T01:54:46.971Z,0.00
2022-09-30T01:55:46.921Z,0.00
2022-09-30T01:56:46.873Z,0.00
2022-09-30T01:57:46.827Z,0.00
2022-09-30T01:58:46.788Z,0.00
2022-09-30T01:59:46.721Z,0.00
2022-09-30T02:00:46.752Z,0.00
2022-09-30T02:01:46.761Z,0.00
2022-09-30T02:02:46.571Z,0.00
2022-09-30T02:03:46.518Z,0.00
2022-09-30T02:04:46.469Z,0.00
2022-09-30T02:05:46.420Z,0.00
2022-09-30T02:06:46.369Z,0.00
2022-09-30T02:07:46.320Z,0.00
2022-09-30T02:08:46.269Z,0.00
2022-09-30T02:09:46.277Z,0.00
2022-09-30T02:10:46.171Z,0.00
2022-09-30T02:11:46.122Z,0.00
2022-09-30T02:12:46.069Z,0.00
2022-09-30T02:13:46.020Z,0.00
2022-09-30T02:14:45.989Z,0.00
2022-09-30T02:15:45.922Z,0.00
2022-09-30T02:16:45.869Z,0.00
2022-09-30T02:17:45.819Z,0.00
2022-09-30T02:18:45.795Z,0.00
2022-09-30T02:19:45.721Z,0.00
2022-09-30T02:20:45.669Z,0.00
2022-09-30T02:21:45.629Z,0.00
2022-09-30T02:22:45.571Z,0.00
2022-09-30T02:23:45.519Z,0.00
2022-09-30T02:24:45.467Z,0.00
2022-09-30T02:25:45.419Z,0.00
2022-09-30T02:26:45.370Z,0.00
2022-09-30T02:27:45.319Z,0.00
2022-09-30T02:28:45.266Z,0.00
2022-09-30T02:29:45.220Z,0.00
2022-09-30T02:30:45.184Z,0.00
2022-09-30T02:31:45.190Z,0.00
2022-09-30T02:32:45.067Z,0.00
2022-09-30T02:33:45.017Z,0.00
2022-09-30T02:34:44.967Z,0.00
2022-09-30T02:35:44.915Z,0.00
2022-09-30T02:36:44.865Z,0.00
2022-09-30T02:37:44.819Z,0.00
2022-09-30T02:38:44.768Z,0.00
2022-09-30T02:39:44.716Z,0.00
2022-09-30T02:40:44.668Z,0.00
2022-09-30T02:41:44.618Z,0.00
2022-09-30T02:42:44.565Z,0.00
2022-09-30T02:43:44.516Z,0.00
2022-09-30T02:44:44.467Z,0.00
2022-09-30T02:45:44.417Z,0.00
2022-09-30T02:46:44.509Z,0.00
2022-09-30T02:47:44.315Z,0.00
2022-09-30T02:48:44.272Z,0.00
2022-09-30T02:49:44.214Z,0.00
2022-09-30T02:50:44.163Z,0.00
2022-09-30T02:51:44.114Z,0.00
2022-09-30T02:52:44.062Z,0.00
2022-09-30T02:53:44.020Z,0.00
2022-09-30T02:54:43.962Z,0.00
2022-09-30T02:55:43.920Z,0.00
2022-09-30T02:56:43.867Z,0.00
2022-09-30T02:57:43.822Z,0.00
2022-09-30T02:58:43.761Z,0.00
2022-09-30T02:59:43.721Z,0.00
2022-09-30T03:00:43.755Z,0.00
2022-09-30T03:01:43.673Z,0.00
2022-09-30T03:02:43.579Z,0.00
2022-09-30T03:03:43.513Z,0.00
2022-09-30T03:04:43.467Z,0.00
2022-09-30T03:05:43.413Z,0.00
2022-09-30T03:06:43.360Z,0.00
2022-09-30T03:07:43.313Z,0.00
2022-09-30T03:08:43.260Z,0.00
2022-09-30T03:09:43.264Z,0.00
2022-09-30T03:10:43.159Z,0.00
2022-09-30T03:11:43.111Z,0.00
2022-09-30T03:12:43.062Z,0.00
2022-09-30T03:13:43.011Z,0.00
2022-09-30T03:14:42.959Z,0.00
2022-09-30T03:15:42.911Z,0.00
2022-09-30T03:16:42.942Z,0.00
2022-09-30T03:17:42.811Z,0.00
2022-09-30T03:18:42.777Z,0.00
2022-09-30T03:19:42.714Z,0.00
2022-09-30T03:20:42.659Z,0.00
2022-09-30T03:21:42.610Z,0.00
2022-09-30T03:22:42.557Z,0.00
2022-09-30T03:23:42.510Z,0.00
2022-09-30T03:24:42.459Z,0.00
2022-09-30T03:25:42.414Z,0.00
2022-09-30T03:26:42.357Z,0.00
2022-09-30T03:27:42.314Z,0.00
2022-09-30T03:28:42.264Z,0.00
2022-09-30T03:29:42.211Z,0.00
2022-09-30T03:30:42.156Z,0.00
2022-09-30T03:31:42.213Z,0.00
2022-09-30T03:32:42.057Z,0.00
2022-09-30T03:33:42.008Z,0.00
2022-09-30T03:34:41.979Z,0.00
2022-09-30T03:35:41.905Z,0.00
2022-09-30T03:36:41.859Z,0.00
2022-09-30T03:37:41.809Z,0.00
2022-09-30T03:38:41.755Z,0.00
2022-09-30T03:39:41.710Z,0.00
2022-09-30T03:40:41.654Z,0.00
2022-09-30T03:41:41.605Z,0.00
2022-09-30T03:42:41.555Z,0.00
2022-09-30T03:43:41.505Z,0.00
2022-09-30T03:44:41.454Z,0.00
2022-09-30T03:45:41.404Z,0.00
2022-09-30T03:46:41.402Z,0.00
2022-09-30T03:47:41.309Z,0.00
2022-09-30T03:48:41.253Z,0.00
2022-09-30T03:49:41.215Z,0.00
2022-09-30T03:50:41.170Z,0.00
2022-09-30T03:51:41.106Z,0.00
2022-09-30T03:52:41.053Z,0.00
2022-09-30T03:53:41.007Z,0.00
2022-09-30T03:54:40.953Z,0.00
2022-09-30T03:55:40.908Z,0.00
2022-09-30T03:56:40.853Z,0.00
2022-09-30T03:57:40.812Z,0.00
2022-09-30T03:58:40.753Z,0.00
2022-09-30T03:59:40.704Z,0.00
2022-09-30T04:00:40.720Z,0.00
2022-09-30T04:01:40.714Z,0.00
2022-09-30T04:02:40.553Z,0.00
2022-09-30T04:03:40.508Z,0.00
2022-09-30T04:04:40.452Z,0.00
2022-09-30T04:05:40.405Z,0.00
2022-09-30T04:06:40.370Z,0.00
2022-09-30T04:07:40.303Z,0.00
2022-09-30T04:08:40.250Z,0.00
2022-09-30T04:09:40.292Z,0.00
2022-09-30T04:10:40.151Z,0.00
2022-09-30T04:11:40.102Z,0.00
2022-09-30T04:12:40.051Z,0.00
2022-09-30T04:13:40.003Z,0.00
2022-09-30T04:14:39.955Z,0.00
2022-09-30T04:15:39.902Z,0.00
2022-09-30T04:16:39.975Z,0.00
2022-09-30T04:17:39.803Z,0.00
2022-09-30T04:18:39.751Z,0.00
2022-09-30T04:19:39.703Z,0.00
2022-09-30T04:20:39.650Z,0.00
2022-09-30T04:21:39.605Z,0.00
2022-09-30T04:22:39.672Z,0.00
2022-09-30T04:23:39.499Z,0.00
2022-09-30T04:24:39.450Z,0.00
2022-09-30T04:25:39.401Z,0.00
2022-09-30T04:26:39.356Z,0.00
2022-09-30T04:27:39.300Z,0.00
2022-09-30T04:28:39.249Z,0.00
2022-09-30T04:29:39.200Z,0.00
2022-09-30T04:30:39.150Z,0.00
2022-09-30T04:31:39.160Z,0.00
2022-09-30T04:32:39.048Z,0.00
2022-09-30T04:33:39.000Z,0.00
2022-09-30T04:34:38.952Z,0.00
2022-09-30T04:35:38.905Z,0.00
2022-09-30T04:36:38.854Z,0.00
2022-09-30T04:37:38.799Z,0.00
2022-09-30T04:38:38.883Z,0.00
2022-09-30T04:39:38.702Z,0.00
2022-09-30T04:40:38.646Z,0.00
2022-09-30T04:41:38.599Z,0.00
2022-09-30T04:42:38.547Z,0.00
2022-09-30T04:43:38.497Z,0.00
2022-09-30T04:44:38.452Z,0.00
2022-09-30T04:45:38.447Z,0.00
2022-09-30T04:46:38.348Z,0.00
2022-09-30T04:47:38.296Z,0.00
2022-09-30T04:48:38.247Z,0.00
2022-09-30T04:49:38.197Z,0.00
2022-09-30T04:50:38.144Z,0.00
2022-09-30T04:51:38.098Z,0.00
2022-09-30T04:52:38.045Z,0.00
2022-09-30T04:53:37.996Z,0.00
2022-09-30T04:54:37.959Z,0.00
2022-09-30T04:55:37.895Z,0.00
2022-09-30T04:56:37.844Z,0.00
2022-09-30T04:57:37.795Z,0.00
2022-09-30T04:58:37.743Z,0.00
2022-09-30T04:59:37.697Z,0.00
2022-09-30T05:00:37.722Z,0.00
2022-09-30T05:01:37.661Z,0.00
2022-09-30T05:02:37.542Z,0.00
2022-09-30T05:03:37.495Z,0.00
2022-09-30T05:04:37.442Z,0.00
2022-09-30T05:05:37.395Z,0.00
2022-09-30T05:06:37.343Z,0.00
2022-09-30T05:07:37.295Z,0.00
2022-09-30T05:08:38.839Z,0.00
2022-09-30T05:09:37.235Z,0.00
2022-09-30T05:10:37.163Z,0.00
2022-09-30T05:11:37.094Z,0.00
2022-09-30T05:12:37.042Z,0.00
2022-09-30T05:13:36.991Z,0.00
2022-09-30T05:14:36.941Z,0.00
2022-09-30T05:15:36.893Z,0.00
2022-09-30T05:16:36.882Z,0.00
2022-09-30T05:17:36.790Z,0.00
2022-09-30T05:18:36.738Z,0.00
2022-09-30T05:19:36.691Z,0.00
2022-09-30T05:20:36.639Z,0.00
2022-09-30T05:21:36.589Z,0.00
2022-09-30T05:22:36.542Z,0.00
2022-09-30T05:23:36.489Z,0.00
2022-09-30T05:24:36.437Z,0.00
2022-09-30T05:25:36.391Z,0.00
2022-09-30T05:26:36.356Z,0.00
2022-09-30T05:27:36.296Z,0.00
2022-09-30T05:28:36.238Z,0.00
2022-09-30T05:29:36.189Z,0.00
2022-09-30T05:30:36.135Z,0.00
2022-09-30T05:31:36.122Z,0.00
2022-09-30T05:32:36.038Z,0.00
2022-09-30T05:33:36.202Z,0.00
2022-09-30T05:34:35.934Z,0.00
2022-09-30T05:35:35.887Z,0.00
2022-09-30T05:36:35.835Z,0.00
2022-09-30T05:37:35.786Z,0.00
2022-09-30T05:38:35.735Z,0.00
2022-09-30T05:39:35.685Z,0.00
2022-09-30T05:40:35.632Z,0.00
2022-09-30T05:41:35.586Z,0.00
2022-09-30T05:42:35.549Z,0.00
2022-09-30T05:43:35.483Z,0.00
2022-09-30T05:44:35.433Z,0.00
2022-09-30T05:45:35.388Z,0.00
2022-09-30T05:46:35.394Z,0.00
2022-09-30T05:47:35.284Z,0.00
2022-09-30T05:48:35.233Z,0.00
2022-09-30T05:49:35.182Z,0.00
2022-09-30T05:50:35.133Z,0.00
2022-09-30T05:51:35.086Z,0.00
2022-09-30T05:52:35.033Z,5.63
2022-09-30T05:53:34.982Z,5.63
2022-09-30T05:54:34.932Z,5.63
2022-09-30T05:55:39.058Z,5.63
2022-09-30T05:56:34.829Z,5.63
2022-09-30T05:57:34.780Z,5.63
2022-09-30T05:58:34.746Z,5.63
2022-09-30T05:59:34.679Z,5.63
2022-09-30T06:00:34.627Z,5.63
2022-09-30T06:01:34.674Z,5.63
2022-09-30T06:02:34.630Z,5.63
2022-09-30T06:03:34.480Z,5.63
2022-09-30T06:04:34.426Z,5.63
2022-09-30T06:05:34.377Z,5.63
2022-09-30T06:06:34.327Z,5.63
2022-09-30T06:07:34.277Z,5.63
2022-09-30T06:08:34.226Z,5.63
2022-09-30T06:09:34.263Z,5.63
2022-09-30T06:10:34.129Z,5.63
2022-09-30T06:11:34.080Z,5.63
2022-09-30T06:12:34.029Z,5.63
2022-09-30T06:13:33.976Z,5.63
2022-09-30T06:14:33.944Z,5.63
2022-09-30T06:15:33.881Z,5.63
2022-09-30T06:16:33.858Z,5.63
2022-09-30T06:17:33.782Z,11.25
2022-09-30T06:18:33.740Z,11.25
2022-09-30T06:19:33.680Z,11.25
2022-09-30T06:20:33.625Z,11.25
2022-09-30T06:21:33.581Z,11.25
2022-09-30T06:22:33.527Z,11.25
2022-09-30T06:23:33.477Z,11.25
2022-09-30T06:24:33.425Z,11.25
2022-09-30T06:25:33.376Z,11.25
2022-09-30T06:26:33.326Z,11.25
2022-09-30T06:27:33.277Z,11.25
2022-09-30T06:28:33.224Z,11.25
2022-09-30T06:29:33.174Z,11.25
2022-09-30T06:30:35.379Z,11.25
2022-09-30T06:31:33.145Z,11.25
2022-09-30T06:32:33.024Z,11.25
2022-09-30T06:33:32.973Z,11.25
2022-09-30T06:34:32.925Z,16.88
2022-09-30T06:35:32.882Z,16.88
2022-09-30T06:36:32.823Z,16.88
2022-09-30T06:37:32.773Z,16.88
2022-09-30T06:38:32.724Z,16.88
2022-09-30T06:39:32.674Z,22.50
2022-09-30T06:40:32.628Z,22.50
2022-09-30T06:41:32.571Z,22.50
2022-09-30T06:42:32.538Z,28.13
2022-09-30T06:43:35.512Z,28.13
2022-09-30T06:44:34.072Z,33.75
2022-09-30T06:45:33.215Z,33.75
2022-09-30T06:46:32.490Z,33.75
2022-09-30T06:47:32.313Z,39.38
2022-09-30T06:48:38.391Z,33.75
2022-09-30T06:49:45.072Z,33.75
2022-09-30T06:50:32.122Z,33.75
2022-09-30T06:51:32.079Z,39.38
2022-09-30T06:52:32.023Z,39.38
2022-09-30T06:53:31.974Z,39.38
2022-09-30T06:54:31.926Z,39.38
2022-09-30T06:55:31.874Z,39.38
2022-09-30T06:56:31.834Z,39.38
2022-09-30T06:57:31.776Z,39.38
2022-09-30T06:58:31.725Z,39.38
2022-09-30T06:59:31.675Z,39.38
2022-09-30T07:00:31.768Z,39.38
2022-09-30T07:01:31.578Z,39.38
2022-09-30T07:02:31.649Z,39.38
2022-09-30T07:03:31.476Z,39.38
2022-09-30T07:04:31.429Z,39.38
2022-09-30T07:05:31.379Z,39.38
2022-09-30T07:06:31.330Z,39.38
2022-09-30T07:07:31.278Z,39.38
2022-09-30T07:08:31.231Z,39.38
2022-09-30T07:09:31.242Z,39.38
2022-09-30T07:10:31.133Z,39.38
2022-09-30T07:11:31.081Z,39.38
2022-09-30T07:12:31.033Z,39.38
2022-09-30T07:13:30.984Z,39.38
2022-09-30T07:14:30.936Z,39.38
2022-09-30T07:15:30.884Z,39.38
2022-09-30T07:16:30.883Z,39.38
2022-09-30T07:17:30.788Z,39.38
2022-09-30T07:18:30.768Z,33.75
2022-09-30T07:19:30.690Z,39.38
2022-09-30T07:20:30.649Z,39.38
2022-09-30T07:21:30.591Z,39.38
2022-09-30T07:22:30.549Z,39.38
2022-09-30T07:23:30.492Z,39.38
2022-09-30T07:24:30.445Z,39.38
2022-09-30T07:25:30.394Z,39.38
2022-09-30T07:26:30.347Z,39.38
2022-09-30T07:27:30.297Z,39.38
2022-09-30T07:28:30.250Z,39.38
2022-09-30T07:29:44.458Z,39.38
2022-09-30T07:30:30.151Z,39.38
2022-09-30T07:31:35.110Z,39.38
2022-09-30T07:32:30.120Z,39.38
2022-09-30T07:33:30.006Z,39.38
2022-09-30T07:34:29.973Z,39.38
2022-09-30T07:35:29.907Z,39.38
2022-09-30T07:36:32.687Z,39.38
2022-09-30T07:37:29.810Z,39.38
2022-09-30T07:38:29.762Z,39.38
2022-09-30T07:39:29.713Z,39.38
2022-09-30T07:40:29.666Z,39.38
2022-09-30T07:41:29.615Z,39.38
2022-09-30T07:42:29.568Z,39.38
2022-09-30T07:43:29.518Z,39.38
2022-09-30T07:44:29.471Z,39.38
2022-09-30T07:45:29.479Z,39.38
2022-09-30T07:46:29.375Z,39.38
2022-09-30T07:47:29.330Z,39.38
2022-09-30T07:48:29.279Z,39.38
2022-09-30T07:49:29.228Z,39.38
2022-09-30T07:50:29.208Z,39.38
2022-09-30T07:51:29.130Z,39.38
2022-09-30T07:52:29.084Z,39.38
2022-09-30T07:53:29.034Z,39.38
2022-09-30T07:54:28.988Z,39.38
2022-09-30T07:55:28.941Z,39.38
2022-09-30T07:56:41.094Z,39.38
2022-09-30T07:57:28.842Z,39.38
2022-09-30T07:58:28.796Z,39.38
2022-09-30T07:59:28.748Z,39.38
2022-09-30T08:00:42.107Z,39.38
2022-09-30T08:01:28.720Z,39.38
2022-09-30T08:02:28.780Z,39.38
2022-09-30T08:03:28.556Z,39.38
2022-09-30T08:04:28.507Z,39.38
2022-09-30T08:05:28.459Z,39.38
2022-09-30T08:06:28.435Z,39.38
2022-09-30T08:07:28.361Z,39.38
2022-09-30T08:08:28.322Z,39.38
2022-09-30T08:09:28.570Z,39.38
2022-09-30T08:10:28.220Z,39.38
2022-09-30T08:11:28.170Z,45.00
2022-09-30T08:12:28.124Z,39.38
2022-09-30T08:13:28.073Z,45.00
2022-09-30T08:14:28.028Z,45.00
2022-09-30T08:15:27.979Z,45.00
2022-09-30T08:16:28.005Z,45.00
2022-09-30T08:17:27.889Z,45.00
2022-09-30T08:18:27.840Z,45.00
2022-09-30T08:19:27.787Z,45.00
2022-09-30T08:20:27.743Z,45.00
2022-09-30T08:21:27.695Z,45.00
2022-09-30T08:22:27.662Z,45.00
2022-09-30T08:23:27.598Z,39.38
2022-09-30T08:24:27.785Z,45.00
2022-09-30T08:25:27.506Z,39.38
2022-09-30T08:26:27.457Z,45.00
2022-09-30T08:27:27.579Z,45.00
2022-09-30T08:28:27.363Z,39.38
2022-09-30T08:29:53.127Z,39.38
2022-09-30T08:30:27.307Z,45.00
2022-09-30T08:31:27.244Z,45.00
2022-09-30T08:32:27.175Z,45.00
2022-09-30T08:33:27.125Z,45.00
2022-09-30T08:34:27.084Z,45.00
2022-09-30T08:35:27.029Z,45.00
2022-09-30T08:36:26.982Z,45.00
2022-09-30T08:37:26.935Z,45.00
2022-09-30T08:38:26.904Z,45.00
2022-09-30T08:39:26.843Z,45.00
2022-09-30T08:40:26.792Z,45.00
2022-09-30T08:41:26.745Z,45.00
2022-09-30T08:42:47.078Z,45.00
2022-09-30T08:43:26.650Z,45.00
2022-09-30T08:44:26.605Z,45.00
2022-09-30T08:45:26.726Z,45.00
2022-09-30T08:46:26.579Z,45.00
2022-09-30T08:47:26.460Z,45.00
2022-09-30T08:48:26.415Z,45.00
2022-09-30T08:49:26.369Z,45.00
2022-09-30T08:50:26.327Z,45.00
2022-09-30T08:51:26.273Z,45.00
2022-09-30T08:52:37.285Z,45.00
2022-09-30T08:54:26.152Z,45.00
2022-09-30T08:55:26.087Z,45.00
2022-09-30T08:56:26.036Z,45.00
2022-09-30T08:57:25.992Z,45.00
2022-09-30T08:58:25.944Z,45.00
2022-09-30T08:59:25.901Z,45.00
2022-09-30T09:00:25.852Z,45.00
2022-09-30T09:01:25.870Z,45.00
2022-09-30T09:02:25.786Z,45.00
2022-09-30T09:03:25.715Z,45.00
2022-09-30T09:04:25.819Z,45.00
2022-09-30T09:05:25.622Z,45.00
2022-09-30T09:06:25.583Z,45.00
2022-09-30T09:07:25.528Z,50.63
2022-09-30T09:08:25.475Z,45.00
2022-09-30T09:09:25.533Z,45.00
2022-09-30T09:10:25.399Z,45.00
2022-09-30T09:11:25.339Z,45.00
2022-09-30T09:12:25.290Z,45.00
2022-09-30T09:13:25.246Z,45.00
2022-09-30T09:15:25.153Z,50.63
2022-09-30T09:16:25.192Z,50.63
2022-09-30T09:17:25.059Z,45.00
2022-09-30T09:18:25.445Z,45.00
2022-09-30T09:19:25.046Z,45.00
2022-09-30T09:20:24.918Z,45.00
2022-09-30T09:21:24.883Z,45.00
2022-09-30T09:22:25.129Z,45.00
2022-09-30T09:23:24.779Z,45.00
2022-09-30T09:24:24.774Z,45.00
2022-09-30T09:25:24.685Z,45.00
2022-09-30T09:26:24.659Z,45.00
2022-09-30T09:27:24.619Z,45.00
2022-09-30T09:28:24.593Z,45.00
2022-09-30T09:29:24.722Z,45.00
2022-09-30T09:30:24.452Z,45.00
2022-09-30T09:31:24.434Z,45.00
2022-09-30T09:32:24.361Z,45.00
2022-09-30T09:33:24.316Z,45.00
2022-09-30T09:34:24.272Z,45.00
2022-09-30T09:35:24.220Z,45.00
2022-09-30T09:36:24.178Z,45.00
2022-09-30T09:37:24.129Z,45.00
2022-09-30T09:38:24.085Z,45.00
2022-09-30T09:39:24.242Z,45.00
2022-09-30T09:40:23.993Z,45.00
2022-09-30T09:41:23.947Z,45.00
2022-09-30T09:42:23.920Z,45.00
2022-09-30T09:43:26.241Z,45.00
2022-09-30T09:44:23.921Z,45.00
2022-09-30T09:45:23.758Z,45.00
2022-09-30T09:46:23.843Z,45.00
2022-09-30T09:47:23.667Z,45.00
2022-09-30T09:48:23.623Z,45.00
2022-09-30T09:49:23.574Z,45.00
2022-09-30T09:50:23.528Z,39.38
2022-09-30T09:51:23.485Z,39.38
2022-09-30T09:52:23.441Z,39.38
2022-09-30T09:53:23.390Z,39.38
2022-09-30T09:54:23.432Z,39.38
2022-09-30T09:55:23.303Z,39.38
2022-09-30T09:56:23.262Z,39.38
2022-09-30T09:57:23.222Z,39.38
2022-09-30T09:58:23.181Z,45.00
2022-09-30T09:59:23.296Z,45.00
2022-09-30T10:00:23.072Z,45.00
2022-09-30T10:01:23.078Z,45.00
2022-09-30T10:02:22.999Z,45.00
2022-09-30T10:03:22.930Z,45.00
2022-09-30T10:04:22.975Z,45.00
2022-09-30T10:05:22.839Z,45.00
2022-09-30T10:06:22.797Z,45.00
2022-09-30T10:07:22.748Z,45.00
2022-09-30T10:08:22.703Z,39.38
2022-09-30T10:09:22.758Z,45.00
2022-09-30T10:10:24.301Z,39.38
2022-09-30T10:11:22.562Z,39.38
2022-09-30T10:12:22.519Z,39.38
2022-09-30T10:13:22.473Z,39.38
2022-09-30T10:14:22.471Z,39.38
2022-09-30T10:15:22.380Z,39.38
2022-09-30T10:16:22.399Z,39.38
2022-09-30T10:17:22.289Z,39.38
2022-09-30T10:18:22.244Z,39.38
2022-09-30T10:19:22.199Z,39.38
2022-09-30T10:20:22.155Z,39.38
2022-09-30T10:21:22.108Z,33.75
2022-09-30T10:22:22.060Z,33.75
2022-09-30T10:23:22.015Z,33.75
2022-09-30T10:24:21.980Z,33.75
2022-09-30T10:25:21.929Z,33.75
2022-09-30T10:26:21.906Z,33.75
2022-09-30T10:27:21.832Z,33.75
2022-09-30T10:28:21.815Z,33.75
2022-09-30T10:29:21.764Z,33.75
2022-09-30T10:30:21.713Z,33.75
2022-09-30T10:31:21.710Z,33.75
2022-09-30T10:32:21.645Z,33.75
2022-09-30T10:33:21.557Z,33.75
2022-09-30T10:34:21.511Z,33.75
2022-09-30T10:35:21.467Z,33.75
2022-09-30T10:36:21.426Z,33.75
2022-09-30T10:37:21.374Z,33.75
2022-09-30T10:38:21.330Z,33.75
2022-09-30T10:39:21.287Z,33.75
2022-09-30T10:40:21.240Z,33.75
2022-09-30T10:41:21.194Z,33.75
2022-09-30T10:42:25.788Z,33.75
2022-09-30T10:43:21.107Z,33.75
2022-09-30T10:44:21.065Z,33.75
2022-09-30T10:45:21.015Z,33.75
2022-09-30T10:46:26.295Z,33.75
2022-09-30T10:47:20.920Z,22.50
2022-09-30T10:48:20.874Z,22.50
2022-09-30T10:49:20.832Z,33.75
2022-09-30T10:50:20.783Z,33.75
2022-09-30T10:51:20.741Z,33.75
2022-09-30T10:52:20.694Z,33.75
2022-09-30T10:53:20.648Z,33.75
2022-09-30T10:54:20.603Z,33.75
2022-09-30T10:55:20.558Z,39.38
2022-09-30T10:56:20.510Z,28.13
2022-09-30T10:57:20.464Z,39.38
2022-09-30T10:58:20.418Z,33.75
2022-09-30T10:59:20.374Z,39.38
2022-09-30T11:00:20.326Z,33.75
2022-09-30T11:01:20.312Z,39.38
2022-09-30T11:03:20.292Z,39.38
2022-09-30T11:04:20.146Z,39.38
2022-09-30T11:05:20.105Z,39.38
2022-09-30T11:06:20.053Z,33.75
2022-09-30T11:07:20.010Z,39.38
2022-09-30T11:08:19.964Z,39.38
2022-09-30T11:09:19.921Z,39.38
2022-09-30T11:10:19.872Z,45.00
2022-09-30T11:11:19.831Z,33.75
2022-09-30T11:12:19.782Z,28.13
2022-09-30T11:13:19.742Z,39.38
2022-09-30T11:14:19.690Z,39.38
2022-09-30T11:15:19.650Z,39.38
2022-09-30T11:16:19.695Z,45.00
2022-09-30T11:17:22.706Z,50.63
2022-09-30T11:18:19.525Z,50.63
2022-09-30T11:19:19.466Z,50.63
2022-09-30T11:20:19.423Z,45.00
2022-09-30T11:21:19.373Z,56.25
2022-09-30T11:22:19.326Z,56.25
2022-09-30T11:23:19.284Z,56.25
2022-09-30T11:24:19.240Z,50.63
2022-09-30T11:25:19.194Z,61.88
2022-09-30T11:26:19.144Z,45.00
2022-09-30T11:27:19.102Z,39.38
2022-09-30T11:28:19.093Z,39.38
2022-09-30T11:29:19.010Z,50.63
2022-09-30T11:30:18.962Z,56.25
2022-09-30T11:31:18.991Z,56.25
2022-09-30T11:32:18.875Z,56.25
2022-09-30T11:33:18.830Z,61.88
2022-09-30T11:34:18.807Z,61.88
2022-09-30T11:35:18.738Z,61.88
2022-09-30T11:36:18.693Z,61.88
2022-09-30T11:37:18.649Z,56.25
2022-09-30T11:38:18.601Z,56.25
2022-09-30T11:39:18.557Z,61.88
2022-09-30T11:40:18.515Z,73.13
2022-09-30T11:41:18.466Z,67.50
2022-09-30T11:42:18.422Z,56.25
2022-09-30T11:43:18.376Z,50.63
2022-09-30T11:44:18.329Z,56.25
2022-09-30T11:45:18.286Z,61.88
2022-09-30T11:46:18.388Z,61.88
2022-09-30T11:47:18.195Z,50.63
2022-09-30T11:48:18.148Z,45.00
2022-09-30T11:49:18.107Z,50.63
2022-09-30T11:50:18.080Z,61.88
2022-09-30T11:51:18.017Z,56.25
2022-09-30T11:52:17.979Z,50.63
2022-09-30T11:53:17.926Z,50.63
2022-09-30T11:54:17.880Z,39.38
2022-09-30T11:55:17.837Z,45.00
2022-09-30T11:56:17.789Z,61.88
2022-09-30T11:57:17.748Z,56.25
2022-09-30T11:58:39.877Z,50.63
2022-09-30T11:59:17.654Z,50.63
2022-09-30T12:00:17.615Z,39.38
2022-09-30T12:01:17.567Z,39.38
2022-09-30T12:02:17.563Z,50.63
2022-09-30T12:03:17.519Z,56.25
2022-09-30T12:04:17.434Z,56.25
2022-09-30T12:05:17.388Z,56.25
2022-09-30T12:06:17.385Z,56.25
2022-09-30T12:07:17.297Z,73.13
2022-09-30T12:08:17.252Z,78.75
2022-09-30T12:09:17.207Z,67.50
2022-09-30T12:10:17.164Z,67.50
2022-09-30T12:11:17.133Z,67.50
2022-09-30T12:12:17.238Z,61.88
2022-09-30T12:13:17.032Z,67.50
2022-09-30T12:14:16.980Z,67.50
2022-09-30T12:15:16.940Z,73.13
2022-09-30T12:16:16.927Z,78.75
2022-09-30T12:17:16.850Z,78.75
2022-09-30T12:18:16.804Z,39.38
2022-09-30T12:19:18.708Z,33.75
2022-09-30T12:20:16.714Z,61.88
2022-09-30T12:21:16.673Z,56.25
2022-09-30T12:22:16.643Z,56.25
2022-09-30T12:23:16.582Z,163.13
2022-09-30T12:24:16.538Z,101.25
2022-09-30T12:25:16.494Z,129.38
2022-09-30T12:26:16.447Z,129.38
2022-09-30T12:27:16.403Z,101.25
2022-09-30T12:28:16.479Z,90.00
2022-09-30T12:29:16.320Z,78.75
2022-09-30T12:30:16.271Z,56.25
2022-09-30T12:31:16.260Z,33.75
2022-09-30T12:32:16.275Z,61.88
2022-09-30T12:33:16.140Z,73.13
2022-09-30T12:34:16.093Z,106.88
2022-09-30T12:35:16.049Z,118.13
2022-09-30T12:36:16.005Z,78.75
2022-09-30T12:37:15.963Z,56.25
2022-09-30T12:38:15.934Z,56.25
2022-09-30T12:39:15.873Z,50.63
2022-09-30T12:40:15.827Z,73.13
2022-09-30T12:41:15.784Z,61.88
2022-09-30T12:42:15.798Z,61.88
2022-09-30T12:43:15.697Z,67.50
2022-09-30T12:44:15.650Z,78.75
2022-09-30T12:45:15.610Z,78.75
2022-09-30T12:46:15.618Z,73.13
2022-09-30T12:47:15.523Z,56.25
2022-09-30T12:48:17.523Z,56.25
2022-09-30T12:49:15.432Z,56.25
2022-09-30T12:50:15.395Z,61.88
2022-09-30T12:51:15.342Z,56.25
2022-09-30T12:52:15.296Z,50.63
2022-09-30T12:53:15.254Z,61.88
2022-09-30T12:54:15.242Z,56.25
2022-09-30T12:55:15.169Z,61.88
2022-09-30T12:56:15.121Z,73.13
2022-09-30T12:57:15.078Z,67.50
2022-09-30T12:58:15.031Z,56.25
2022-09-30T12:59:14.989Z,61.88
2022-09-30T13:00:14.947Z,56.25
2022-09-30T13:01:14.999Z,61.88
2022-09-30T13:02:14.943Z,61.88
2022-09-30T13:03:14.811Z,61.88
2022-09-30T13:04:14.769Z,73.13
2022-09-30T13:05:14.726Z,90.00
2022-09-30T13:06:14.679Z,61.88
2022-09-30T13:07:14.637Z,56.25